Time;durP1;ratioP1;P1;durP2;ratioP2;P2;SDS_P1;SDS_P2;PMS_P1;PMS_P2;Temp;Humidity;BMP_temperature;BMP_pressure;BME280_temperature;BME280_humidity;BME280_pressure;Samples;Min_cycle;Max_cycle;Signal;HPM_P1;HPM_P2
2022/03/18 00:00:31;;;;;;;0.67;0.67;;;6.80;99.90;;;;;;4935949;29;20451;-74
2022/03/18 00:02:58;;;;;;;0.33;0.33;;;6.80;99.90;;;;;;4936006;29;20439;-74
2022/03/18 00:05:25;;;;;;;1.90;1.30;;;6.80;99.90;;;;;;4935637;29;20445;-74
2022/03/18 00:07:54;;;;;;;1.17;1.17;;;6.80;99.90;;;;;;4935831;29;20482;-74
2022/03/18 00:10:22;;;;;;;1.37;1.37;;;6.80;99.90;;;;;;4935909;29;20483;-74
2022/03/18 00:12:51;;;;;;;0.70;0.70;;;6.80;99.90;;;;;;4936080;29;20447;-74
2022/03/18 00:15:18;;;;;;;0.80;0.80;;;6.80;99.90;;;;;;4938413;29;20483;-74
2022/03/18 00:17:45;;;;;;;0.50;0.47;;;6.70;99.90;;;;;;4939581;29;20475;-74
2022/03/18 00:20:14;;;;;;;0.53;0.53;;;6.60;99.90;;;;;;4943393;29;20974;-75
2022/03/18 00:22:42;;;;;;;5.30;1.70;;;6.70;99.90;;;;;;4944055;29;20458;-75
2022/03/18 00:25:11;;;;;;;0.80;0.67;;;6.70;99.90;;;;;;4940202;29;20449;-74
2022/03/18 00:27:38;;;;;;;0.50;0.30;;;6.70;99.90;;;;;;4939431;29;20474;-74
2022/03/18 00:30:07;;;;;;;0.30;0.30;;;6.60;99.90;;;;;;4939054;29;20471;-74
2022/03/18 00:32:34;;;;;;;0.50;0.50;;;6.60;99.90;;;;;;4939051;29;20490;-74
2022/03/18 00:35:01;;;;;;;0.60;0.60;;;6.60;99.90;;;;;;4938857;29;20573;-74
2022/03/18 00:37:28;;;;;;;0.30;0.30;;;6.70;99.90;;;;;;4939055;29;20826;-74
2022/03/18 00:39:54;;;;;;;0.83;0.40;;;6.60;99.90;;;;;;4939099;29;20451;-74
2022/03/18 00:42:22;;;;;;;1.07;1.07;;;6.60;99.90;;;;;;4939081;29;20478;-74
2022/03/18 00:44:49;;;;;;;0.63;0.63;;;6.60;99.90;;;;;;4938756;29;20966;-74
2022/03/18 00:52:44;;;;;;;0.70;0.70;;;6.50;99.90;;;;;;4939056;29;20486;-74
2022/03/18 00:55:11;;;;;;;0.40;0.40;;;6.50;99.90;;;;;;4938659;29;21007;-75
2022/03/18 00:57:39;;;;;;;0.67;0.67;;;6.50;99.90;;;;;;4938812;29;20447;-75
2022/03/18 01:00:07;;;;;;;0.40;0.40;;;6.50;99.90;;;;;;4938470;29;20458;-75
2022/03/18 01:02:34;;;;;;;0.40;0.30;;;6.50;99.90;;;;;;4938444;29;20459;-74
2022/03/18 01:05:01;;;;;;;0.93;0.93;;;6.50;99.90;;;;;;4938673;29;20462;-75
2022/03/18 01:07:28;;;;;;;0.30;0.30;;;6.60;99.90;;;;;;4938588;29;20447;-74
2022/03/18 01:09:55;;;;;;;0.40;0.40;;;6.60;99.90;;;;;;4938843;29;20550;-75
2022/03/18 01:12:22;;;;;;;0.40;0.40;;;6.60;99.90;;;;;;4938576;29;20447;-74
2022/03/18 01:14:50;;;;;;;0.70;0.50;;;6.60;99.90;;;;;;4938452;29;20538;-74
2022/03/18 01:17:17;;;;;;;6.97;0.60;;;6.60;99.90;;;;;;4938474;29;20455;-75
2022/03/18 01:19:44;;;;;;;2.10;1.27;;;6.50;99.90;;;;;;4938383;29;20475;-74
2022/03/18 01:22:10;;;;;;;1.13;1.03;;;6.60;99.90;;;;;;4938774;29;20436;-75
2022/03/18 01:24:38;;;;;;;0.50;0.47;;;6.50;99.90;;;;;;4937967;29;20451;-74
2022/03/18 01:27:05;;;;;;;0.50;0.50;;;6.50;99.90;;;;;;4938206;29;20455;-74
2022/03/18 01:29:32;;;;;;;1.53;1.43;;;6.50;99.90;;;;;;4937887;29;20541;-74
2022/03/18 01:32:00;;;;;;;0.93;0.57;;;6.60;99.90;;;;;;4937995;29;20491;-76
2022/03/18 01:34:27;;;;;;;0.80;0.80;;;6.50;99.90;;;;;;4938198;29;20455;-75
2022/03/18 01:36:54;;;;;;;0.63;0.63;;;6.50;99.90;;;;;;4937737;29;21010;-76
2022/03/18 01:39:22;;;;;;;0.50;0.50;;;6.50;99.90;;;;;;4937725;29;21111;-75
2022/03/18 01:41:49;;;;;;;0.30;0.27;;;6.50;99.90;;;;;;4938043;29;20550;-75
2022/03/18 01:44:16;;;;;;;0.83;0.83;;;6.60;99.90;;;;;;4937666;29;20965;-75
2022/03/18 01:46:43;;;;;;;0.73;0.73;;;6.60;99.90;;;;;;4937983;29;20458;-76
2022/03/18 01:49:11;;;;;;;2.30;0.93;;;6.50;99.90;;;;;;4937990;29;20498;-75
2022/03/18 01:51:39;;;;;;;0.70;0.70;;;6.50;99.90;;;;;;4937544;29;20966;-75
2022/03/18 01:56:51;;;;;;;0.67;0.67;;;6.50;99.90;;;;;;4938078;29;20477;-75
2022/03/18 01:59:18;;;;;;;0.57;0.57;;;6.60;99.90;;;;;;4937617;29;20570;-75
2022/03/18 02:01:44;;;;;;;0.60;0.60;;;6.60;99.90;;;;;;4937707;29;20451;-75
2022/03/18 02:04:13;;;;;;;0.50;0.50;;;6.60;99.90;;;;;;4937665;29;20918;-76
2022/03/18 02:06:42;;;;;;;0.37;0.30;;;6.60;99.90;;;;;;4938090;29;20458;-75
2022/03/18 02:09:09;;;;;;;0.83;0.83;;;6.60;99.90;;;;;;4937445;29;20471;-75
2022/03/18 02:11:36;;;;;;;0.90;0.90;;;6.70;99.90;;;;;;4937493;29;20554;-75
2022/03/18 02:14:03;;;;;;;0.50;0.40;;;6.70;99.90;;;;;;4937407;29;20478;-75
2022/03/18 02:16:29;;;;;;;0.30;0.30;;;6.60;99.90;;;;;;4936993;29;20479;-75
2022/03/18 02:18:56;;;;;;;0.70;0.60;;;6.60;99.90;;;;;;4937280;29;20494;-75
2022/03/18 02:21:28;;;;;;;1.80;0.70;;;6.60;99.90;;;;;;4937299;29;20462;-75
2022/03/18 02:23:57;;;;;;;0.40;0.40;;;6.60;99.90;;;;;;4937308;29;20470;-75
2022/03/18 02:26:24;;;;;;;0.50;0.50;;;6.50;99.90;;;;;;4937202;29;20459;-75
2022/03/18 02:28:51;;;;;;;1.70;0.50;;;6.50;99.90;;;;;;4937306;29;20479;-75
2022/03/18 02:31:20;;;;;;;0.50;0.50;;;6.50;99.90;;;;;;4936816;29;20486;-75
2022/03/18 02:33:46;;;;;;;0.70;0.70;;;6.50;99.90;;;;;;4936633;29;20491;-75
2022/03/18 02:36:13;;;;;;;0.40;0.40;;;6.60;99.90;;;;;;4936342;29;20857;-75
2022/03/18 02:38:41;;;;;;;0.50;0.50;;;6.60;99.90;;;;;;4936455;29;20471;-75
2022/03/18 02:41:11;;;;;;;1.23;0.50;;;6.50;99.90;;;;;;4936651;29;20471;-76
2022/03/18 02:43:38;;;;;;;0.80;0.80;;;6.50;99.90;;;;;;4937444;29;20452;-75
2022/03/18 02:46:05;;;;;;;0.63;0.63;;;6.50;99.90;;;;;;4939504;29;20458;-76
2022/03/18 02:48:31;;;;;;;0.30;0.30;;;6.50;99.90;;;;;;4939749;29;20466;-76
2022/03/18 02:50:58;;;;;;;3.50;1.40;;;6.50;99.90;;;;;;4938991;29;20455;-76
2022/03/18 02:53:25;;;;;;;0.40;0.33;;;6.50;99.90;;;;;;4937668;29;20809;-76
2022/03/18 02:55:53;;;;;;;0.90;0.60;;;6.50;99.90;;;;;;4937022;29;20487;-75
2022/03/18 02:58:21;;;;;;;3.33;1.33;;;6.50;99.90;;;;;;4937037;29;20542;-75
2022/03/18 03:00:48;;;;;;;0.37;0.37;;;6.50;99.90;;;;;;4936857;29;20458;-76
2022/03/18 03:03:14;;;;;;;0.90;0.90;;;6.50;99.90;;;;;;4936624;29;20455;-75
2022/03/18 03:08:25;;;;;;;2.10;0.40;;;6.40;99.90;;;;;;4938246;29;20506;-80
2022/03/18 03:10:52;;;;;;;0.70;0.70;;;6.40;99.90;;;;;;4943217;29;20454;-76
2022/03/18 03:13:22;;;;;;;2.73;0.93;;;6.50;99.90;;;;;;4940293;29;20455;-75
2022/03/18 03:15:49;;;;;;;0.30;0.27;;;6.40;99.90;;;;;;4937095;29;20482;-76
2022/03/18 03:18:16;;;;;;;0.77;0.77;;;6.50;99.90;;;;;;4936529;29;20472;-76
2022/03/18 03:20:43;;;;;;;0.30;0.30;;;6.50;99.90;;;;;;4936517;29;20451;-75
2022/03/18 03:23:10;;;;;;;0.43;0.43;;;6.40;99.90;;;;;;4936353;29;20458;-75
2022/03/18 03:25:37;;;;;;;1.27;0.53;;;6.50;99.90;;;;;;4936337;29;20475;-75
2022/03/18 03:28:04;;;;;;;0.40;0.40;;;6.50;99.90;;;;;;4936195;29;20488;-75
2022/03/18 03:30:32;;;;;;;0.40;0.40;;;6.50;99.90;;;;;;4936243;29;20447;-75
2022/03/18 03:32:58;;;;;;;0.30;0.30;;;6.40;99.90;;;;;;4935941;29;21013;-75
2022/03/18 03:35:25;;;;;;;0.30;0.30;;;6.50;99.90;;;;;;4936204;29;20458;-75
2022/03/18 03:37:52;;;;;;;1.53;0.90;;;6.40;99.90;;;;;;4936149;29;20482;-75
2022/03/18 03:40:19;;;;;;;1.63;1.00;;;6.40;99.90;;;;;;4936234;29;20455;-75
2022/03/18 03:42:46;;;;;;;1.60;0.70;;;6.50;99.90;;;;;;4935911;29;20458;-75
2022/03/18 03:45:14;;;;;;;0.50;0.50;;;6.50;99.90;;;;;;4936296;29;20450;-75
2022/03/18 03:47:42;;;;;;;0.87;0.87;;;6.50;99.90;;;;;;4936106;29;20467;-75
2022/03/18 03:50:10;;;;;;;0.30;0.30;;;6.40;99.90;;;;;;4939818;29;20970;-75
2022/03/18 03:52:37;;;;;;;0.60;0.60;;;6.40;99.90;;;;;;4940139;29;20462;-75
2022/03/18 03:55:04;;;;;;;0.87;0.50;;;6.40;99.90;;;;;;4940086;29;20458;-75
2022/03/18 03:57:31;;;;;;;0.60;0.60;;;6.40;99.90;;;;;;4939880;29;20487;-75
2022/03/18 03:59:58;;;;;;;0.30;0.30;;;6.30;99.90;;;;;;4939975;29;20451;-75
2022/03/18 04:02:27;;;;;;;0.83;0.40;;;6.30;99.90;;;;;;4940010;29;20451;-75
2022/03/18 04:04:57;;;;;;;0.47;0.47;;;6.30;99.90;;;;;;4939782;29;20447;-75
2022/03/18 04:07:25;;;;;;;0.30;0.30;;;6.30;99.90;;;;;;4939494;29;20924;-75
2022/03/18 04:09:54;;;;;;;2.80;0.97;;;6.30;99.90;;;;;;4939477;29;20499;-75
2022/03/18 04:12:20;;;;;;;0.37;0.27;;;6.30;99.90;;;;;;4940015;29;20452;-75
2022/03/18 04:14:47;;;;;;;0.47;0.47;;;6.30;99.90;;;;;;4939655;29;20455;-75
2022/03/18 04:17:14;;;;;;;0.30;0.30;;;6.30;99.90;;;;;;4939650;29;20531;-75
2022/03/18 04:19:41;;;;;;;0.73;0.73;;;6.30;99.90;;;;;;4939505;29;20471;-75
2022/03/18 04:22:09;;;;;;;0.77;0.77;;;6.30;99.90;;;;;;4939636;29;20855;-75
2022/03/18 04:24:36;;;;;;;0.30;0.30;;;6.40;99.90;;;;;;4939470;29;20454;-75
2022/03/18 04:27:03;;;;;;;0.30;0.30;;;6.30;99.90;;;;;;4939445;29;20443;-75
2022/03/18 04:29:31;;;;;;;0.30;0.30;;;6.20;99.90;;;;;;4939371;29;20471;-75
2022/03/18 04:31:58;;;;;;;0.50;0.50;;;6.20;99.90;;;;;;4939651;29;20989;-75
2022/03/18 04:34:25;;;;;;;0.80;0.80;;;6.30;99.90;;;;;;4939161;29;20918;-75
2022/03/18 04:36:52;;;;;;;2.63;0.50;;;6.40;99.90;;;;;;4939155;29;20497;-75
2022/03/18 04:39:20;;;;;;;0.70;0.70;;;6.30;99.90;;;;;;4939169;29;20492;-74
2022/03/18 04:41:47;;;;;;;0.87;0.87;;;6.30;99.90;;;;;;4939177;29;20446;-75
2022/03/18 04:44:13;;;;;;;0.60;0.60;;;6.30;99.90;;;;;;4939116;29;20459;-74
2022/03/18 04:46:40;;;;;;;2.23;0.50;;;6.30;99.90;;;;;;4939097;29;20806;-75
2022/03/18 04:49:07;;;;;;;1.03;0.53;;;6.30;99.90;;;;;;4938926;29;20909;-75
2022/03/18 04:51:34;;;;;;;0.77;0.77;;;6.30;99.90;;;;;;4938981;29;20462;-75
2022/03/18 04:54:00;;;;;;;0.40;0.30;;;6.30;99.90;;;;;;4938960;29;20451;-75
2022/03/18 04:59:12;;;;;;;0.40;0.40;;;6.20;99.90;;;;;;4938502;29;20457;-75
2022/03/18 05:01:39;;;;;;;0.40;0.40;;;6.20;99.90;;;;;;4938139;29;20458;-75
2022/03/18 05:04:06;;;;;;;0.30;0.20;;;6.20;99.90;;;;;;4938436;29;20451;-75
2022/03/18 05:06:33;;;;;;;1.23;0.80;;;6.20;99.90;;;;;;4938685;29;20474;-74
2022/03/18 05:09:00;;;;;;;0.30;0.30;;;6.20;99.90;;;;;;4938563;29;20510;-75
2022/03/18 05:11:28;;;;;;;0.30;0.30;;;6.20;99.90;;;;;;4938631;29;20455;-75
2022/03/18 05:13:55;;;;;;;0.50;0.50;;;6.20;99.90;;;;;;4938916;29;20459;-75
2022/03/18 05:16:22;;;;;;;0.30;0.30;;;6.20;99.90;;;;;;4938436;29;20542;-75
2022/03/18 05:18:49;;;;;;;0.50;0.50;;;6.10;99.90;;;;;;4938518;29;20480;-75
2022/03/18 05:21:15;;;;;;;0.60;0.30;;;6.20;99.90;;;;;;4938471;29;20458;-75
2022/03/18 05:23:42;;;;;;;0.40;0.40;;;6.30;99.90;;;;;;4938092;29;20974;-75
2022/03/18 05:26:09;;;;;;;0.87;0.80;;;6.20;99.90;;;;;;4938493;29;20451;-75
2022/03/18 05:28:37;;;;;;;0.90;0.60;;;6.30;99.90;;;;;;4938550;29;20471;-74
2022/03/18 05:31:04;;;;;;;0.47;0.47;;;6.30;99.90;;;;;;4938356;29;20455;-74
2022/03/18 05:33:30;;;;;;;0.50;0.50;;;6.30;99.90;;;;;;4938025;29;20482;-74
2022/03/18 05:35:58;;;;;;;0.73;0.50;;;6.30;99.90;;;;;;4938298;29;20455;-74
2022/03/18 05:38:25;;;;;;;1.03;1.03;;;6.30;99.90;;;;;;4938105;29;20479;-74
2022/03/18 05:40:53;;;;;;;0.30;0.30;;;6.30;99.90;;;;;;4938060;29;20549;-75
2022/03/18 05:43:19;;;;;;;0.30;0.30;;;6.30;99.90;;;;;;4938143;29;20455;-74
2022/03/18 05:45:48;;;;;;;1.00;0.60;;;6.30;99.90;;;;;;4937911;29;20451;-74
2022/03/18 05:48:14;;;;;;;0.50;0.40;;;6.30;99.90;;;;;;4938281;29;20506;-74
2022/03/18 05:50:41;;;;;;;0.50;0.50;;;6.30;99.90;;;;;;4938124;29;20451;-75
2022/03/18 05:53:08;;;;;;;0.40;0.30;;;6.30;99.90;;;;;;4938113;29;20459;-74
2022/03/18 05:58:16;;;;;;;0.40;0.40;;;6.30;99.90;;;;;;4938176;29;20491;-74
2022/03/18 06:00:43;;;;;;;0.40;0.40;;;6.40;99.90;;;;;;4938506;29;20455;-74
2022/03/18 06:03:12;;;;;;;0.60;0.60;;;6.40;99.90;;;;;;4937799;29;20451;-75
2022/03/18 06:05:39;;;;;;;1.03;0.77;;;6.40;99.90;;;;;;4937490;29;20869;-74
2022/03/18 06:13:31;;;;;;;0.60;0.60;;;6.40;99.90;;;;;;4937232;29;20506;-75
2022/03/18 06:15:58;;;;;;;0.30;0.20;;;6.40;99.90;;;;;;4937244;29;20450;-76
2022/03/18 06:18:26;;;;;;;0.93;0.90;;;6.40;99.90;;;;;;4937285;29;20498;-75
2022/03/18 06:20:54;;;;;;;0.47;0.47;;;6.40;99.90;;;;;;4937390;29;20451;-75
2022/03/18 06:23:20;;;;;;;0.30;0.30;;;6.40;99.90;;;;;;4937413;29;20436;-74
2022/03/18 06:25:47;;;;;;;0.50;0.37;;;6.40;99.90;;;;;;4937137;29;20451;-74
2022/03/18 06:28:14;;;;;;;0.40;0.40;;;6.40;99.90;;;;;;4937186;29;20499;-74
2022/03/18 06:30:41;;;;;;;0.50;0.50;;;6.40;99.90;;;;;;4937155;29;20462;-75
2022/03/18 06:33:08;;;;;;;1.60;1.60;;;6.40;99.90;;;;;;4936878;29;20495;-75
2022/03/18 06:35:36;;;;;;;0.30;0.30;;;6.40;99.90;;;;;;4936803;29;20451;-74
2022/03/18 06:38:03;;;;;;;0.40;0.40;;;6.40;99.90;;;;;;4936879;29;20495;-74
2022/03/18 06:40:30;;;;;;;0.63;0.63;;;6.50;99.90;;;;;;4937036;29;20455;-74
2022/03/18 06:42:57;;;;;;;0.30;0.20;;;6.50;99.90;;;;;;4937202;29;20450;-74
2022/03/18 06:45:24;;;;;;;0.90;0.40;;;6.50;99.90;;;;;;4936608;29;20984;-74
2022/03/18 06:47:51;;;;;;;3.70;0.70;;;6.50;99.90;;;;;;4937036;29;20475;-74
2022/03/18 06:50:17;;;;;;;0.40;0.40;;;6.50;99.90;;;;;;4936742;29;20528;-75
2022/03/18 06:52:45;;;;;;;0.67;0.67;;;6.50;99.90;;;;;;4936807;29;20459;-75
2022/03/18 06:55:12;;;;;;;1.00;0.60;;;6.50;99.90;;;;;;4936497;29;20444;-74
2022/03/18 06:57:39;;;;;;;1.33;0.90;;;6.50;99.90;;;;;;4936921;29;20486;-75
2022/03/18 07:00:07;;;;;;;0.53;0.53;;;6.50;99.90;;;;;;4936699;29;20447;-74
2022/03/18 07:02:33;;;;;;;0.47;0.47;;;6.50;99.90;;;;;;4936991;29;20813;-74
2022/03/18 07:05:00;;;;;;;1.00;1.00;;;6.50;99.90;;;;;;4936355;29;20550;-74
2022/03/18 07:07:27;;;;;;;0.60;0.60;;;6.60;99.90;;;;;;4936314;29;20454;-74
2022/03/18 07:09:55;;;;;;;2.67;0.57;;;6.60;99.90;;;;;;4936585;29;20459;-74
2022/03/18 07:12:22;;;;;;;2.90;0.60;;;6.60;99.90;;;;;;4936362;29;20459;-74
2022/03/18 07:14:49;;;;;;;0.40;0.40;;;6.60;99.90;;;;;;4936415;29;20459;-74
2022/03/18 07:20:00;;;;;;;1.27;0.93;;;6.70;99.90;;;;;;4936542;29;20444;-74
2022/03/18 07:22:27;;;;;;;1.63;1.10;;;6.70;99.90;;;;;;4936188;29;20455;-74
2022/03/18 07:24:55;;;;;;;0.40;0.40;;;6.70;99.90;;;;;;4935822;29;20455;-74
2022/03/18 07:27:22;;;;;;;0.30;0.30;;;6.60;99.90;;;;;;4939017;29;20451;-75
2022/03/18 07:29:48;;;;;;;0.30;0.30;;;6.70;99.90;;;;;;4939066;29;20982;-75
2022/03/18 07:32:17;;;;;;;0.77;0.77;;;6.70;99.90;;;;;;4939247;29;20493;-75
2022/03/18 07:34:44;;;;;;;0.30;0.30;;;6.70;99.90;;;;;;4937799;29;20459;-74
2022/03/18 07:37:11;;;;;;;0.83;0.83;;;6.70;99.90;;;;;;4936626;29;20848;-74
2022/03/18 07:39:37;;;;;;;0.37;0.37;;;6.70;99.90;;;;;;4936273;29;20478;-74
2022/03/18 07:42:06;;;;;;;0.63;0.50;;;6.80;99.90;;;;;;4936105;29;20439;-75
2022/03/18 07:44:36;;;;;;;0.70;0.70;;;6.90;99.90;;;;;;4935919;29;20979;-74
2022/03/18 07:47:03;;;;;;;2.20;1.27;;;7.00;99.90;;;;;;4936183;29;20538;-74
2022/03/18 07:49:30;;;;;;;0.30;0.30;;;7.00;99.90;;;;;;4935790;29;20463;-74
2022/03/18 07:51:56;;;;;;;0.40;0.30;;;7.10;99.90;;;;;;4935796;29;20852;-74
2022/03/18 07:54:23;;;;;;;0.73;0.73;;;7.20;99.90;;;;;;4936343;29;20450;-74
2022/03/18 07:56:50;;;;;;;0.30;0.30;;;7.20;99.90;;;;;;4935726;29;20954;-74
2022/03/18 07:59:18;;;;;;;0.70;0.60;;;7.20;99.90;;;;;;4936226;29;20473;-75
2022/03/18 08:01:45;;;;;;;1.27;1.00;;;7.30;99.90;;;;;;4935935;29;20961;-75
2022/03/18 08:04:13;;;;;;;1.73;1.10;;;7.30;99.90;;;;;;4936016;29;20447;-75
2022/03/18 08:06:40;;;;;;;1.33;1.33;;;7.40;99.90;;;;;;4936019;29;20837;-75
2022/03/18 08:09:07;;;;;;;0.63;0.63;;;7.40;99.90;;;;;;4936106;29;20463;-75
2022/03/18 08:11:34;;;;;;;0.70;0.70;;;7.40;99.90;;;;;;4935950;29;20531;-75
2022/03/18 08:14:01;;;;;;;0.53;0.53;;;7.40;99.90;;;;;;4936191;29;20447;-75
2022/03/18 08:16:29;;;;;;;4.77;1.20;;;7.30;99.90;;;;;;4936784;29;20463;-75
2022/03/18 08:18:57;;;;;;;3.10;0.83;;;7.40;99.90;;;;;;4935735;29;20491;-75
2022/03/18 08:21:24;;;;;;;0.40;0.40;;;7.40;99.90;;;;;;4936082;29;20459;-75
2022/03/18 08:23:51;;;;;;;0.93;0.77;;;7.50;99.90;;;;;;4935923;29;20458;-75
2022/03/18 08:26:18;;;;;;;1.73;1.27;;;7.40;99.90;;;;;;4935833;29;20435;-75
2022/03/18 08:28:44;;;;;;;1.70;0.50;;;7.50;99.90;;;;;;4935321;29;20991;-75
2022/03/18 08:31:11;;;;;;;4.80;1.37;;;7.60;99.90;;;;;;4935765;29;20455;-75
2022/03/18 08:33:39;;;;;;;0.50;0.50;;;7.60;99.90;;;;;;4935295;29;20489;-75
2022/03/18 08:36:06;;;;;;;2.37;1.93;;;7.60;99.90;;;;;;4937832;29;20451;-75
2022/03/18 08:38:33;;;;;;;4.00;1.17;;;7.60;99.90;;;;;;4938845;29;20877;-75
2022/03/18 08:41:00;;;;;;;4.63;1.13;;;7.60;99.90;;;;;;4939214;29;20462;-75
2022/03/18 08:43:26;;;;;;;0.83;0.80;;;7.50;99.90;;;;;;4939125;29;20459;-75
2022/03/18 08:45:53;;;;;;;1.67;1.53;;;7.50;99.90;;;;;;4939152;29;20488;-75
2022/03/18 08:48:20;;;;;;;3.33;0.60;;;7.60;99.90;;;;;;4938673;29;20971;-75
2022/03/18 08:50:48;;;;;;;2.10;0.83;;;7.70;99.90;;;;;;4939110;29;20447;-74
2022/03/18 08:53:15;;;;;;;2.43;0.70;;;7.70;99.90;;;;;;4938672;29;20459;-75
2022/03/18 08:55:42;;;;;;;1.47;1.13;;;7.80;99.90;;;;;;4942609;29;20451;-74
2022/03/18 08:58:08;;;;;;;0.93;0.90;;;7.90;99.90;;;;;;4939757;29;20499;-74
2022/03/18 09:00:35;;;;;;;0.97;0.87;;;7.90;99.90;;;;;;4938585;29;20458;-75
2022/03/18 09:03:02;;;;;;;0.43;0.43;;;8.00;99.90;;;;;;4938565;29;20799;-75
2022/03/18 09:05:30;;;;;;;0.60;0.60;;;8.00;99.90;;;;;;4938985;29;20435;-74
2022/03/18 09:07:59;;;;;;;3.87;1.90;;;8.10;99.90;;;;;;4938581;29;20478;-74
2022/03/18 09:10:26;;;;;;;1.37;0.67;;;8.20;99.90;;;;;;4938636;29;20451;-75
2022/03/18 09:12:58;;;;;;;2.87;1.47;;;8.20;99.90;;;;;;4938643;29;20511;-75
2022/03/18 09:15:25;;;;;;;1.37;1.37;;;8.30;99.90;;;;;;4938613;29;20475;-75
2022/03/18 09:17:52;;;;;;;2.90;1.67;;;8.40;99.90;;;;;;4938439;29;20491;-75
2022/03/18 09:20:18;;;;;;;0.93;0.93;;;8.50;99.90;;;;;;4938675;29;20459;-75
2022/03/18 09:22:45;;;;;;;0.90;0.90;;;8.40;99.90;;;;;;4938459;29;20491;-75
2022/03/18 09:25:14;;;;;;;1.10;1.10;;;8.40;99.90;;;;;;4938442;29;20458;-74
2022/03/18 09:27:41;;;;;;;0.50;0.50;;;8.40;99.90;;;;;;4938672;29;20444;-75
2022/03/18 09:30:09;;;;;;;3.70;1.73;;;8.50;99.90;;;;;;4938219;29;20494;-74
2022/03/18 09:32:35;;;;;;;1.23;1.07;;;8.60;99.90;;;;;;4937988;29;20493;-74
2022/03/18 09:35:03;;;;;;;3.27;1.20;;;8.70;99.90;;;;;;4938293;29;20463;-74
2022/03/18 09:37:30;;;;;;;1.23;1.13;;;8.80;99.90;;;;;;4937652;29;20966;-74
2022/03/18 09:39:57;;;;;;;0.60;0.60;;;8.90;99.90;;;;;;4938173;29;20514;-74
2022/03/18 09:42:25;;;;;;;3.23;1.07;;;9.00;99.90;;;;;;4938111;29;20416;-75
2022/03/18 09:44:52;;;;;;;1.40;0.93;;;9.20;99.90;;;;;;4937989;29;20452;-75
2022/03/18 09:47:22;;;;;;;1.37;1.17;;;9.30;99.90;;;;;;4937502;29;20462;-74
2022/03/18 09:49:49;;;;;;;1.30;1.00;;;9.40;99.90;;;;;;4938380;29;20818;-75
2022/03/18 09:52:16;;;;;;;1.93;1.60;;;9.30;99.90;;;;;;4937890;29;20451;-75
2022/03/18 09:54:43;;;;;;;2.47;1.87;;;9.30;99.90;;;;;;4937930;29;20427;-74
2022/03/18 09:57:11;;;;;;;4.10;1.93;;;9.50;99.90;;;;;;4937516;29;20908;-75
2022/03/18 09:59:39;;;;;;;0.93;0.60;;;9.80;99.90;;;;;;4937336;29;21031;-75
2022/03/18 10:02:28;;;;;;;1.13;1.03;;;10.00;99.90;;;;;;4937458;29;20847;-75
2022/03/18 10:04:57;;;;;;;5.23;0.90;;;10.20;99.90;;;;;;4937469;29;20794;-75
2022/03/18 10:07:25;;;;;;;4.00;1.00;;;10.40;99.90;;;;;;4937792;29;20455;-75
2022/03/18 10:10:04;;;;;;;3.60;0.70;;;10.50;99.90;;;;;;4937470;29;20486;-74
2022/03/18 10:12:33;;;;;;;1.33;1.07;;;10.40;99.90;;;;;;4937550;29;20439;-74
2022/03/18 10:15:11;;;;;;;3.73;1.43;;;10.10;99.90;;;;;;4937485;29;20440;-74
2022/03/18 10:17:42;;;;;;;1.13;0.93;;;9.90;99.90;;;;;;4937361;29;20459;-74
2022/03/18 10:20:23;;;;;;;0.40;0.33;;;9.80;99.90;;;;;;4937001;29;20444;-74
2022/03/18 10:22:50;;;;;;;0.73;0.73;;;9.80;99.90;;;;;;4937000;29;20490;-74
2022/03/18 10:25:42;;;;;;;1.13;1.03;;;10.10;99.90;;;;;;4937727;29;20454;-74
2022/03/18 10:28:10;;;;;;;6.70;1.23;;;10.60;99.90;;;;;;4937123;29;20467;-73
2022/03/18 10:30:38;;;;;;;0.67;0.67;;;10.90;99.90;;;;;;4937073;29;20469;-74
2022/03/18 10:33:06;;;;;;;1.23;1.20;;;11.00;99.90;;;;;;4936826;29;20505;-74
2022/03/18 10:38:30;;;;;;;1.23;0.60;;;11.00;99.90;;;;;;4937161;29;20478;-74
2022/03/18 10:40:58;;;;;;;1.10;1.07;;;10.80;99.90;;;;;;4936747;29;20443;-75
2022/03/18 10:43:25;;;;;;;1.13;0.90;;;10.70;99.90;;;;;;4936935;29;20644;-76
2022/03/18 10:46:04;;;;;;;1.07;0.83;;;10.60;99.90;;;;;;4936950;29;20474;-74
2022/03/18 10:48:32;;;;;;;1.37;1.30;;;10.70;99.90;;;;;;4936800;29;20471;-74
2022/03/18 10:51:06;;;;;;;4.20;1.70;;;10.80;99.90;;;;;;4936845;29;20439;-74
2022/03/18 10:53:34;;;;;;;2.00;0.60;;;10.80;99.90;;;;;;4936769;29;20522;-74
2022/03/18 10:56:02;;;;;;;0.50;0.50;;;11.00;99.90;;;;;;4936791;29;20446;-74
2022/03/18 10:58:32;;;;;;;0.60;0.60;;;11.60;99.90;;;;;;4935737;29;21025;-74
2022/03/18 11:01:03;;;;;;;0.57;0.40;;;11.70;99.90;;;;;;4936695;29;20490;-75
2022/03/18 11:03:32;;;;;;;2.30;0.97;;;11.40;99.90;;;;;;4936647;29;20486;-75
2022/03/18 11:06:02;;;;;;;0.63;0.63;;;11.10;99.90;;;;;;4936485;29;20471;-74
2022/03/18 11:08:35;;;;;;;3.03;0.60;;;11.20;99.90;;;;;;4936794;29;20468;-74
2022/03/18 11:11:07;;;;;;;0.60;0.60;;;11.30;99.90;;;;;;4936563;29;20439;-75
2022/03/18 11:13:40;;;;;;;1.80;1.30;;;11.20;99.90;;;;;;4936818;29;20439;-75
2022/03/18 11:16:11;;;;;;;1.40;1.10;;;11.00;99.90;;;;;;4936443;29;20431;-74
2022/03/18 11:18:38;;;;;;;1.33;0.87;;;10.90;99.90;;;;;;4936313;29;20554;-74
2022/03/18 11:21:06;;;;;;;2.30;1.57;;;10.80;99.90;;;;;;4936325;29;20447;-74
2022/03/18 11:23:34;;;;;;;0.80;0.80;;;11.00;99.90;;;;;;4936269;29;20463;-73
2022/03/18 11:26:01;;;;;;;3.63;1.33;;;11.00;99.90;;;;;;4935948;29;20899;-74
2022/03/18 11:28:28;;;;;;;2.67;2.33;;;11.00;99.90;;;;;;4936095;29;20478;-74
2022/03/18 11:31:03;;;;;;;3.57;1.50;;;11.10;99.90;;;;;;4936232;29;20439;-74
2022/03/18 11:33:31;;;;;;;4.10;3.80;;;11.10;99.90;;;;;;4936025;29;21017;-74
2022/03/18 11:36:19;;;;;;;1.97;0.93;;;11.30;99.90;;;;;;4936118;29;20459;-75
2022/03/18 11:39:06;;;;;;;1.37;1.30;;;11.40;99.90;;;;;;4935973;29;20491;-74
2022/03/18 11:41:56;;;;;;;2.50;0.93;;;11.50;99.90;;;;;;4936247;29;20470;-75
2022/03/18 11:44:58;;;;;;;0.40;0.40;;;11.50;99.90;;;;;;4936114;29;20447;-75
2022/03/18 11:47:44;;;;;;;0.70;0.47;;;11.50;99.90;;;;;;4877625;29;20445;-74
2022/03/18 11:50:47;;;;;;;3.50;1.37;;;11.40;99.90;;;;;;4877530;29;20461;-74
2022/03/18 11:53:30;;;;;;;1.47;0.90;;;11.30;99.90;;;;;;4926107;29;20466;-74
2022/03/18 11:56:09;;;;;;;2.60;2.40;;;11.30;99.90;;;;;;4935885;29;20506;-74
2022/03/18 11:58:35;;;;;;;7.10;1.47;;;11.30;99.90;;;;;;4936185;29;20522;-75
2022/03/18 12:01:02;;;;;;;6.53;1.00;;;11.30;99.90;;;;;;4935716;29;20446;-74
2022/03/18 12:03:30;;;;;;;4.10;1.70;;;11.10;99.90;;;;;;4935957;29;20435;-74
2022/03/18 12:05:59;;;;;;;2.40;2.23;;;11.00;99.90;;;;;;4936031;29;20443;-74
2022/03/18 12:08:59;;;;;;;1.50;1.40;;;11.10;99.90;;;;;;4935896;29;20522;-74
2022/03/18 12:11:36;;;;;;;2.30;0.67;;;11.20;99.90;;;;;;4939603;29;20447;-74
2022/03/18 12:14:04;;;;;;;5.50;1.17;;;11.40;99.90;;;;;;4939671;29;20438;-74
2022/03/18 12:16:31;;;;;;;1.37;1.13;;;11.50;99.90;;;;;;4939647;29;20442;-74
2022/03/18 12:19:09;;;;;;;1.37;1.30;;;11.60;99.90;;;;;;4939450;29;20493;-74
2022/03/18 12:21:38;;;;;;;2.83;1.50;;;11.70;99.90;;;;;;4939532;29;20439;-74
2022/03/18 12:24:08;;;;;;;1.43;1.33;;;11.70;99.90;;;;;;4939478;29;20461;-74
2022/03/18 12:26:36;;;;;;;2.63;1.03;;;11.80;99.90;;;;;;4939172;29;20953;-74
2022/03/18 12:29:04;;;;;;;3.13;0.90;;;11.80;99.90;;;;;;4939316;29;20470;-74
2022/03/18 12:31:31;;;;;;;2.57;1.20;;;11.80;99.90;;;;;;4939179;29;20443;-74
2022/03/18 12:34:00;;;;;;;1.77;1.00;;;12.00;99.90;;;;;;4939557;29;20790;-74
2022/03/18 12:36:28;;;;;;;1.37;1.23;;;12.10;99.90;;;;;;4939210;29;20466;-73
2022/03/18 12:49:17;;;;;;;2.80;2.00;;;11.60;99.90;;;;;;5366796;23;20500;-87
2022/03/18 12:51:53;;;;;;;1.70;0.97;;;11.40;99.90;;;;;;4959159;29;20452;-88
2022/03/18 12:54:20;;;;;;;3.13;1.90;;;11.10;99.90;;;;;;4959197;29;20426;-88
2022/03/18 12:56:47;;;;;;;1.27;1.13;;;11.00;99.90;;;;;;4958875;29;20445;-88
2022/03/18 12:59:17;;;;;;;2.00;0.93;;;10.80;99.90;;;;;;4958870;29;20489;-88
2022/03/18 13:01:55;;;;;;;3.60;1.77;;;10.80;99.90;;;;;;4958520;29;20447;-88
2022/03/18 13:04:24;;;;;;;1.17;1.10;;;10.80;99.90;;;;;;4958802;29;20818;-85
2022/03/18 13:06:57;;;;;;;1.83;1.73;;;11.00;99.90;;;;;;4958832;29;20510;-88
2022/03/18 13:09:24;;;;;;;1.63;1.00;;;11.10;99.90;;;;;;4958302;29;20458;-87
2022/03/18 13:11:51;;;;;;;3.77;1.23;;;11.20;99.90;;;;;;4959010;29;20462;-87
2022/03/18 13:14:34;;;;;;;2.97;1.70;;;11.10;99.90;;;;;;4958107;29;20969;-87
2022/03/18 13:17:03;;;;;;;8.50;2.00;;;11.20;99.90;;;;;;4958133;29;20442;-86
2022/03/18 13:19:43;;;;;;;5.33;1.13;;;11.30;99.90;;;;;;4958213;29;20589;-86
2022/03/18 13:22:18;;;;;;;3.27;1.10;;;11.30;99.90;;;;;;4957393;28;20439;-86
2022/03/18 13:24:46;;;;;;;0.90;0.90;;;11.30;99.90;;;;;;4958147;29;20477;-85
2022/03/18 13:27:12;;;;;;;4.03;2.57;;;11.20;99.90;;;;;;4957959;29;20461;-85
2022/03/18 13:35:13;;;;;;;3.53;1.67;;;11.20;99.90;;;;;;4952215;29;20521;-84
2022/03/18 13:37:40;;;;;;;3.20;2.13;;;11.00;99.90;;;;;;4957078;29;20446;-85
2022/03/18 13:40:12;;;;;;;1.90;1.60;;;10.80;99.90;;;;;;4957160;29;20488;-85
2022/03/18 13:42:41;;;;;;;7.13;2.77;;;10.80;99.90;;;;;;4957113;29;20945;-85
2022/03/18 13:45:08;;;;;;;2.37;1.90;;;10.80;99.90;;;;;;4957451;29;20450;-85